createdAt,value
2022-08-12T00:00:09.466Z,957.7200
2022-08-12T00:00:20.527Z,957.7000
2022-08-12T00:00:31.569Z,957.7000
2022-08-12T00:00:42.656Z,957.7000
2022-08-12T00:00:53.720Z,957.7000
2022-08-12T00:01:04.774Z,957.6800
2022-08-12T00:01:15.829Z,957.6600
2022-08-12T00:02:02.965Z,957.6800
2022-08-12T00:02:04.133Z,957.6800
2022-08-12T00:02:05.578Z,957.6600
2022-08-12T00:02:17.158Z,957.6600
2022-08-12T00:02:28.354Z,957.6600
2022-08-12T00:02:39.743Z,957.7000
2022-08-12T00:02:51.214Z,957.7000
2022-08-12T00:03:02.352Z,957.7000
2022-08-12T00:03:13.434Z,957.6800
2022-08-12T00:03:29.291Z,957.7000
2022-08-12T00:03:40.484Z,957.6600
2022-08-12T00:03:51.618Z,957.6400
2022-08-12T00:04:02.647Z,957.6400
2022-08-12T00:04:13.711Z,957.6200
2022-08-12T00:04:24.794Z,957.6800
2022-08-12T00:04:35.867Z,957.6600
2022-08-12T00:04:47.070Z,957.6600
2022-08-12T00:04:58.137Z,957.6600
2022-08-12T00:05:09.207Z,957.6400
2022-08-12T00:05:20.274Z,957.6600
2022-08-12T00:05:31.353Z,957.6600
2022-08-12T00:06:04.292Z,957.6600
2022-08-12T00:06:04.832Z,957.6800
2022-08-12T00:06:16.480Z,957.6600
2022-08-12T00:06:27.529Z,957.6400
2022-08-12T00:06:38.597Z,957.6800
2022-08-12T00:06:49.635Z,957.6600
2022-08-12T00:07:00.733Z,957.6600
2022-08-12T00:07:11.797Z,957.6600
2022-08-12T00:07:22.888Z,957.6400
2022-08-12T00:07:33.947Z,957.6400
2022-08-12T00:07:45.018Z,957.6600
2022-08-12T00:07:56.086Z,957.6600
2022-08-12T00:08:07.164Z,957.6600
2022-08-12T00:08:33.009Z,957.6600
2022-08-12T00:08:36.736Z,957.6400
2022-08-12T00:08:48.143Z,957.6200
2022-08-12T00:08:59.255Z,957.6200
2022-08-12T00:09:10.328Z,957.6200
2022-08-12T00:09:26.133Z,957.6000
2022-08-12T00:09:37.516Z,957.6000
2022-08-12T00:09:49.360Z,957.6000
2022-08-12T00:10:00.449Z,957.6000
2022-08-12T00:10:11.518Z,957.6400
2022-08-12T00:10:22.698Z,957.6400
2022-08-12T00:10:33.774Z,957.6600
2022-08-12T00:10:44.857Z,957.6600
2022-08-12T00:10:55.939Z,957.6600
2022-08-12T00:11:09.842Z,957.6400
2022-08-12T00:11:24.134Z,957.6200
2022-08-12T00:11:35.211Z,957.6200
2022-08-12T00:11:46.288Z,957.6000
2022-08-12T00:11:57.368Z,957.6000
2022-08-12T00:12:08.430Z,957.6000
2022-08-12T00:12:19.457Z,957.6600
2022-08-12T00:12:30.587Z,957.6400
2022-08-12T00:12:41.698Z,957.6200
2022-08-12T00:12:52.782Z,957.6400
2022-08-12T00:13:03.859Z,957.6400
2022-08-12T00:13:14.925Z,957.6400
2022-08-12T00:13:26.226Z,957.6600
2022-08-12T00:13:37.272Z,957.6600
2022-08-12T00:13:48.325Z,957.6200
2022-08-12T00:13:59.409Z,957.6200
2022-08-12T00:14:10.476Z,957.6200
2022-08-12T00:14:21.545Z,957.6200
2022-08-12T00:14:32.602Z,957.6600
2022-08-12T00:14:43.664Z,957.6600
2022-08-12T00:14:54.715Z,957.6800
2022-08-12T00:15:05.776Z,957.6200
2022-08-12T00:15:16.843Z,957.6600
2022-08-12T00:15:28.060Z,957.6600
2022-08-12T00:15:39.130Z,957.6600
2022-08-12T00:15:50.193Z,957.6600
2022-08-12T00:16:01.951Z,957.6600
2022-08-12T00:16:13.047Z,957.6600
2022-08-12T00:16:24.121Z,957.6600
2022-08-12T00:16:35.168Z,957.6600
2022-08-12T00:16:46.233Z,957.6800
2022-08-12T00:16:57.425Z,957.6600
2022-08-12T00:17:08.513Z,957.6600
2022-08-12T00:17:19.577Z,957.6800
2022-08-12T00:17:30.853Z,957.6800
2022-08-12T00:17:41.926Z,957.6400
2022-08-12T00:17:52.998Z,957.6400
2022-08-12T00:18:04.044Z,957.6600
2022-08-12T00:18:15.124Z,957.6400
2022-08-12T00:18:26.192Z,957.6600
2022-08-12T00:18:37.272Z,957.6600
2022-08-12T00:18:48.351Z,957.6600
2022-08-12T00:18:59.831Z,957.6600
2022-08-12T00:19:10.921Z,957.6600
2022-08-12T00:19:21.989Z,957.6600
2022-08-12T00:19:33.810Z,957.6600
2022-08-12T00:19:44.846Z,957.6600
2022-08-12T00:19:55.898Z,957.6600
2022-08-12T00:20:06.983Z,957.6400
2022-08-12T00:20:18.084Z,957.6400
2022-08-12T00:20:29.836Z,957.6400
2022-08-12T00:20:41.163Z,957.6600
2022-08-12T00:20:52.254Z,957.6400
2022-08-12T00:21:03.429Z,957.6400
2022-08-12T00:21:14.999Z,957.6400
2022-08-12T00:21:26.691Z,957.6200
2022-08-12T00:21:38.373Z,957.6400
2022-08-12T00:21:49.560Z,957.6400
2022-08-12T00:22:00.640Z,957.6400
2022-08-12T00:22:11.706Z,957.6400
2022-08-12T00:22:22.779Z,957.6400
2022-08-12T00:22:34.024Z,957.6600
2022-08-12T00:22:45.052Z,957.6400
2022-08-12T00:22:59.814Z,957.6400
2022-08-12T00:23:11.298Z,957.6400
2022-08-12T00:23:22.499Z,957.6200
2022-08-12T00:23:33.732Z,957.6400
2022-08-12T00:23:44.813Z,957.6400
2022-08-12T00:23:55.883Z,957.6400
2022-08-12T00:24:08.271Z,957.6400
2022-08-12T00:24:20.389Z,957.6200
2022-08-12T00:24:31.486Z,957.6000
2022-08-12T00:24:42.554Z,957.6200
2022-08-12T00:24:53.632Z,957.6200
2022-08-12T00:25:04.839Z,957.6400
2022-08-12T00:25:15.910Z,957.6200
2022-08-12T00:26:02.777Z,957.6400
2022-08-12T00:26:05.872Z,957.6200
2022-08-12T00:26:20.731Z,957.6000
2022-08-12T00:26:22.542Z,957.6200
2022-08-12T00:26:34.859Z,957.6000
2022-08-12T00:26:45.926Z,957.6000
2022-08-12T00:26:56.991Z,957.6200
2022-08-12T00:27:08.048Z,957.6000
2022-08-12T00:27:19.172Z,957.6000
2022-08-12T00:27:44.243Z,957.6000
2022-08-12T00:27:47.229Z,957.6000
2022-08-12T00:27:58.290Z,957.6200
2022-08-12T00:28:09.389Z,957.6200
2022-08-12T00:28:20.452Z,957.6200
2022-08-12T00:28:31.519Z,957.6200
2022-08-12T00:28:42.566Z,957.6000
2022-08-12T00:28:53.761Z,957.6000
2022-08-12T00:29:05.268Z,957.6200
2022-08-12T00:29:16.340Z,957.6200
2022-08-12T00:29:27.623Z,957.6200
2022-08-12T00:29:38.691Z,957.6200
2022-08-12T00:29:49.747Z,957.6200
2022-08-12T00:30:00.833Z,957.6200
2022-08-12T00:30:11.907Z,957.6000
2022-08-12T00:30:22.975Z,957.6000
2022-08-12T00:30:34.035Z,957.6000
2022-08-12T00:30:45.117Z,957.6000
2022-08-12T00:30:56.185Z,957.6200
2022-08-12T00:31:07.256Z,957.6200
2022-08-12T00:31:18.335Z,957.6200
2022-08-12T00:31:29.703Z,957.6200
2022-08-12T00:31:40.746Z,957.6400
2022-08-12T00:31:51.829Z,957.6600
2022-08-12T00:32:02.898Z,957.6400
2022-08-12T00:32:35.325Z,957.6200
2022-08-12T00:32:35.496Z,957.6400
2022-08-12T00:32:51.777Z,957.6400
2022-08-12T00:33:04.586Z,957.6600
2022-08-12T00:33:15.781Z,957.6400
2022-08-12T00:33:26.965Z,957.6600
2022-08-12T00:33:52.564Z,957.6400
2022-08-12T00:34:00.812Z,957.6600
2022-08-12T00:34:12.814Z,957.6400
2022-08-12T00:34:23.887Z,957.6400
2022-08-12T00:34:35.018Z,957.6400
2022-08-12T00:34:46.091Z,957.6600
2022-08-12T00:34:59.599Z,957.6800
2022-08-12T00:35:12.077Z,957.6600
2022-08-12T00:35:26.030Z,957.6400
2022-08-12T00:35:40.476Z,957.6800
2022-08-12T00:35:51.728Z,957.6600
2022-08-12T00:36:02.815Z,957.6600
2022-08-12T00:36:32.246Z,957.6600
2022-08-12T00:36:35.143Z,957.6400
2022-08-12T00:36:48.869Z,957.6600
2022-08-12T00:37:13.009Z,957.6600
2022-08-12T00:37:18.466Z,957.6600
2022-08-12T00:37:29.500Z,957.6600
2022-08-12T00:37:40.603Z,957.6800
2022-08-12T00:37:51.633Z,957.6400
2022-08-12T00:38:02.689Z,957.6200
2022-08-12T00:38:13.770Z,957.6400
2022-08-12T00:38:24.832Z,957.6200
2022-08-12T00:38:36.019Z,957.6200
2022-08-12T00:38:47.069Z,957.6400
2022-08-12T00:38:58.133Z,957.6400
2022-08-12T00:39:09.199Z,957.6400
2022-08-12T00:39:20.305Z,957.6000
2022-08-12T00:39:31.431Z,957.6000
2022-08-12T00:39:42.676Z,957.5800
2022-08-12T00:39:53.768Z,957.5800
2022-08-12T00:40:11.377Z,957.6000
2022-08-12T00:40:21.800Z,957.5800
2022-08-12T00:40:32.880Z,957.6000
2022-08-12T00:40:43.940Z,957.5800
2022-08-12T00:40:54.996Z,957.6200
2022-08-12T00:41:06.170Z,957.6000
2022-08-12T00:41:17.225Z,957.6000
2022-08-12T00:41:28.288Z,957.6000
2022-08-12T00:41:39.356Z,957.6000
2022-08-12T00:41:50.413Z,957.5800
2022-08-12T00:42:01.485Z,957.5800
2022-08-12T00:42:12.576Z,957.5600
2022-08-12T00:42:23.635Z,957.5600
2022-08-12T00:42:34.737Z,957.5600
2022-08-12T00:42:45.832Z,957.5800
2022-08-12T00:42:56.893Z,957.5800
2022-08-12T00:43:07.954Z,957.5800
2022-08-12T00:43:19.008Z,957.5600
2022-08-12T00:43:30.079Z,957.5600
2022-08-12T00:43:41.132Z,957.5600
2022-08-12T00:43:56.132Z,957.5600
2022-08-12T00:44:07.371Z,957.5600
2022-08-12T00:44:18.434Z,957.5600
2022-08-12T00:44:33.437Z,957.5400
2022-08-12T00:44:45.317Z,957.5600
2022-08-12T00:44:59.498Z,957.5600
2022-08-12T00:45:10.584Z,957.5800
2022-08-12T00:45:21.643Z,957.5600
2022-08-12T00:45:32.712Z,957.5800
2022-08-12T00:45:43.789Z,957.5800
2022-08-12T00:45:54.859Z,957.5600
2022-08-12T00:46:05.918Z,957.5800
2022-08-12T00:46:16.986Z,957.5600
2022-08-12T00:46:28.185Z,957.5600
2022-08-12T00:46:39.260Z,957.5600
2022-08-12T00:46:50.322Z,957.5600
2022-08-12T00:47:01.542Z,957.5600
2022-08-12T00:47:24.592Z,957.5600
2022-08-12T00:47:29.594Z,957.5600
2022-08-12T00:47:40.644Z,957.5600
2022-08-12T00:47:51.699Z,957.5400
2022-08-12T00:48:02.770Z,957.5600
2022-08-12T00:48:13.843Z,957.5400
2022-08-12T00:48:24.920Z,957.5400
2022-08-12T00:48:35.994Z,957.5400
2022-08-12T00:48:47.047Z,957.5200
2022-08-12T00:48:58.114Z,957.5600
2022-08-12T00:49:09.177Z,957.5400
2022-08-12T00:49:20.255Z,957.5600
2022-08-12T00:49:31.499Z,957.5200
2022-08-12T00:49:42.570Z,957.5200
2022-08-12T00:49:59.587Z,957.5400
2022-08-12T00:50:10.660Z,957.5400
2022-08-12T00:50:21.716Z,957.5200
2022-08-12T00:50:32.913Z,957.5400
2022-08-12T00:50:43.984Z,957.5400
2022-08-12T00:50:55.033Z,957.5200
2022-08-12T00:51:06.388Z,957.5200
2022-08-12T00:51:17.693Z,957.5400
2022-08-12T00:51:28.759Z,957.5400
2022-08-12T00:51:39.823Z,957.5200
2022-08-12T00:51:50.943Z,957.5400
2022-08-12T00:52:04.303Z,957.5200
2022-08-12T00:52:15.378Z,957.5200
2022-08-12T00:52:26.447Z,957.5400
2022-08-12T00:52:37.505Z,957.5400
2022-08-12T00:52:48.599Z,957.5200
2022-08-12T00:52:59.648Z,957.5400
2022-08-12T00:53:10.710Z,957.5400
2022-08-12T00:53:21.751Z,957.5000
2022-08-12T00:53:32.840Z,957.5000
2022-08-12T00:53:43.888Z,957.5200
2022-08-12T00:53:54.974Z,957.5200
2022-08-12T00:54:06.189Z,957.5200
2022-08-12T00:54:17.271Z,957.5000
2022-08-12T00:54:30.609Z,957.5000
2022-08-12T00:54:43.431Z,957.5000
2022-08-12T00:54:54.518Z,957.5000
2022-08-12T00:55:05.702Z,957.5000
2022-08-12T00:55:16.768Z,957.5000
2022-08-12T00:55:27.842Z,957.5000
2022-08-12T00:55:38.914Z,957.5000
2022-08-12T00:55:49.983Z,957.5200
2022-08-12T00:56:01.050Z,957.5000
2022-08-12T00:56:12.099Z,957.5000
2022-08-12T00:56:23.182Z,957.5000
2022-08-12T00:56:34.258Z,957.5000
2022-08-12T00:56:45.330Z,957.5000
2022-08-12T00:56:56.408Z,957.5000
2022-08-12T00:57:07.616Z,957.5000
2022-08-12T00:57:18.677Z,957.5000
2022-08-12T00:57:29.728Z,957.4800
2022-08-12T00:57:40.799Z,957.4800
2022-08-12T00:57:51.906Z,957.4800
2022-08-12T00:58:02.956Z,957.4800
2022-08-12T00:58:14.019Z,957.4800
2022-08-12T00:58:25.079Z,957.4800
2022-08-12T00:58:36.164Z,957.5000
2022-08-12T00:58:47.240Z,957.5000
2022-08-12T00:58:58.637Z,957.5000
2022-08-12T00:59:09.725Z,957.5000
2022-08-12T00:59:20.792Z,957.5200
2022-08-12T00:59:31.854Z,957.4800
2022-08-12T00:59:42.952Z,957.4800
2022-08-12T00:59:54.051Z,957.5000
2022-08-12T01:00:05.128Z,957.4800
2022-08-12T01:00:16.222Z,957.5000
2022-08-12T01:00:27.460Z,957.5000
2022-08-12T01:00:38.525Z,957.5000
2022-08-12T01:00:49.581Z,957.5200
2022-08-12T01:01:00.722Z,957.5000
2022-08-12T01:01:11.913Z,957.5200
2022-08-12T01:01:23.026Z,957.5200
2022-08-12T01:02:02.369Z,957.5200
2022-08-12T01:02:10.386Z,957.5200
2022-08-12T01:02:12.202Z,957.5200
2022-08-12T01:02:23.680Z,957.5200
2022-08-12T01:02:34.812Z,957.5600
2022-08-12T01:02:45.853Z,957.5400
2022-08-12T01:02:56.935Z,957.5600
2022-08-12T01:03:08.000Z,957.5600
2022-08-12T01:03:19.042Z,957.5600
2022-08-12T01:03:30.112Z,957.5400
2022-08-12T01:03:41.185Z,957.5400
2022-08-12T01:03:52.253Z,957.5400
2022-08-12T01:04:05.692Z,957.5600
2022-08-12T01:04:16.755Z,957.5600
2022-08-12T01:04:27.815Z,957.5600
2022-08-12T01:04:39.934Z,957.5600
2022-08-12T01:04:50.999Z,957.5600
2022-08-12T01:05:02.156Z,957.5600
2022-08-12T01:05:13.245Z,957.5600
2022-08-12T01:05:24.361Z,957.5800
2022-08-12T01:05:35.426Z,957.5800
2022-08-12T01:05:46.509Z,957.5800
2022-08-12T01:05:57.560Z,957.5800
2022-08-12T01:06:08.637Z,957.5800
2022-08-12T01:06:19.709Z,957.5800
2022-08-12T01:06:30.780Z,957.5800
2022-08-12T01:06:41.852Z,957.5600
2022-08-12T01:06:53.593Z,957.5600
2022-08-12T01:07:05.254Z,957.5800
2022-08-12T01:07:16.319Z,957.5800
2022-08-12T01:07:27.397Z,957.5800
2022-08-12T01:07:38.448Z,957.5800
2022-08-12T01:07:49.519Z,957.6000
2022-08-12T01:08:00.585Z,957.5800
2022-08-12T01:08:11.642Z,957.5800
2022-08-12T01:08:22.713Z,957.5800
2022-08-12T01:08:33.788Z,957.5800
2022-08-12T01:08:44.863Z,957.6000
2022-08-12T01:08:55.939Z,957.6000
2022-08-12T01:09:07.169Z,957.6000
2022-08-12T01:09:18.212Z,957.6000
2022-08-12T01:09:29.295Z,957.5800
2022-08-12T01:09:40.341Z,957.6000
2022-08-12T01:09:51.406Z,957.6000
2022-08-12T01:10:02.486Z,957.6000
2022-08-12T01:10:13.561Z,957.5800
2022-08-12T01:10:27.532Z,957.5800
2022-08-12T01:10:41.615Z,957.5800
2022-08-12T01:10:52.686Z,957.5800
2022-08-12T01:11:03.752Z,957.5800
2022-08-12T01:11:14.812Z,957.6000
2022-08-12T01:11:25.895Z,957.6000
2022-08-12T01:11:36.972Z,957.6000
2022-08-12T01:11:48.072Z,957.5800
2022-08-12T01:11:59.140Z,957.6000
2022-08-12T01:12:10.187Z,957.6000
2022-08-12T01:12:21.258Z,957.6000
2022-08-12T01:12:32.325Z,957.5800
2022-08-12T01:12:43.386Z,957.5800
2022-08-12T01:12:54.446Z,957.5800
2022-08-12T01:13:19.281Z,957.6000
2022-08-12T01:13:28.376Z,957.6000
2022-08-12T01:13:39.438Z,957.6000
2022-08-12T01:13:50.508Z,957.6000
2022-08-12T01:14:01.572Z,957.6000
2022-08-12T01:14:12.611Z,957.6000
2022-08-12T01:14:23.679Z,957.5800
2022-08-12T01:14:34.763Z,957.5800
2022-08-12T01:14:45.829Z,957.5800
2022-08-12T01:14:56.892Z,957.6000
2022-08-12T01:15:07.977Z,957.5800
2022-08-12T01:15:19.046Z,957.5800
2022-08-12T01:15:30.421Z,957.5800
2022-08-12T01:15:41.498Z,957.5800
2022-08-12T01:15:52.566Z,957.5800
2022-08-12T01:16:03.620Z,957.5800
2022-08-12T01:16:14.686Z,957.5600
2022-08-12T01:16:25.768Z,957.5800
2022-08-12T01:16:36.831Z,957.5800
2022-08-12T01:16:47.906Z,957.5800
2022-08-12T01:17:00.268Z,957.5800
2022-08-12T01:17:11.340Z,957.5800
2022-08-12T01:17:22.404Z,957.5800
2022-08-12T01:17:33.460Z,957.5800
2022-08-12T01:17:44.531Z,957.5800
2022-08-12T01:17:55.595Z,957.5800
2022-08-12T01:18:06.667Z,957.6000
2022-08-12T01:18:17.860Z,957.5800
2022-08-12T01:18:28.927Z,957.5800
2022-08-12T01:18:40.005Z,957.5800
2022-08-12T01:18:51.083Z,957.6000
2022-08-12T01:19:02.257Z,957.5800
2022-08-12T01:19:13.334Z,957.5800
2022-08-12T01:19:26.368Z,957.6000
2022-08-12T01:19:37.470Z,957.5400
2022-08-12T01:19:48.742Z,957.5400
2022-08-12T01:19:59.805Z,957.6000
2022-08-12T01:20:10.849Z,957.5800
2022-08-12T01:20:21.928Z,957.5800
2022-08-12T01:20:33.178Z,957.5600
2022-08-12T01:20:45.084Z,957.5600
2022-08-12T01:20:56.164Z,957.5200
2022-08-12T01:21:07.229Z,957.5000
2022-08-12T01:21:18.423Z,957.5000
2022-08-12T01:21:29.489Z,957.5000
2022-08-12T01:21:40.559Z,957.5200
2022-08-12T01:21:51.625Z,957.5200
2022-08-12T01:22:02.698Z,957.5000
2022-08-12T01:22:13.745Z,957.5000
2022-08-12T01:22:24.809Z,957.5000
2022-08-12T01:22:35.970Z,957.5000
2022-08-12T01:22:47.040Z,957.4800
2022-08-12T01:22:58.103Z,957.4800
2022-08-12T01:23:09.170Z,957.4800
2022-08-12T01:23:20.245Z,957.4800
2022-08-12T01:23:31.279Z,957.4800
2022-08-12T01:23:42.360Z,957.4800
2022-08-12T01:23:53.438Z,957.4700
2022-08-12T01:24:29.549Z,957.4700
2022-08-12T01:24:30.117Z,957.4700
2022-08-12T01:24:38.443Z,957.4700
2022-08-12T01:24:50.623Z,957.4500
2022-08-12T01:25:01.684Z,957.4500
2022-08-12T01:25:12.788Z,957.4500
2022-08-12T01:25:23.856Z,957.4500
2022-08-12T01:25:37.380Z,957.4300
2022-08-12T01:25:56.197Z,957.4500
2022-08-12T01:26:07.828Z,957.4300
2022-08-12T01:26:18.899Z,957.4300
2022-08-12T01:26:29.962Z,957.4300
2022-08-12T01:26:41.019Z,957.4100
2022-08-12T01:26:52.088Z,957.4500
2022-08-12T01:27:03.152Z,957.4300
2022-08-12T01:27:18.462Z,957.4100
2022-08-12T01:27:29.542Z,957.4100
2022-08-12T01:27:40.589Z,957.4100
2022-08-12T01:27:51.649Z,957.4100
2022-08-12T01:28:02.719Z,957.4300
2022-08-12T01:28:13.794Z,957.4100
2022-08-12T01:28:24.890Z,957.4100
2022-08-12T01:28:35.964Z,957.4100
2022-08-12T01:28:47.039Z,957.3900
2022-08-12T01:29:01.176Z,957.4100
2022-08-12T01:29:12.241Z,957.4100
2022-08-12T01:29:23.314Z,957.3700
2022-08-12T01:29:35.419Z,957.3900
2022-08-12T01:29:46.482Z,957.4100
2022-08-12T01:29:57.569Z,957.4100
2022-08-12T01:30:08.638Z,957.3900
2022-08-12T01:30:19.720Z,957.3900
2022-08-12T01:30:30.793Z,957.3900
2022-08-12T01:30:41.900Z,957.3700
2022-08-12T01:30:52.969Z,957.3500
2022-08-12T01:31:04.034Z,957.3900
2022-08-12T01:31:16.494Z,957.3700
2022-08-12T01:31:27.738Z,957.3900
2022-08-12T01:31:38.809Z,957.3900
2022-08-12T01:31:49.863Z,957.3700
2022-08-12T01:32:00.932Z,957.3700
2022-08-12T01:32:12.007Z,957.3700
2022-08-12T01:32:23.063Z,957.3700
2022-08-12T01:32:34.115Z,957.3900
2022-08-12T01:32:45.167Z,957.3500
2022-08-12T01:32:56.243Z,957.3500
2022-08-12T01:33:07.988Z,957.3700
2022-08-12T01:33:19.041Z,957.3700
2022-08-12T01:33:30.128Z,957.3700
2022-08-12T01:33:41.216Z,957.3700
2022-08-12T01:33:52.288Z,957.3500
2022-08-12T01:34:03.388Z,957.3700
2022-08-12T01:34:35.527Z,957.3700
2022-08-12T01:34:36.679Z,957.3500
2022-08-12T01:34:48.549Z,957.3700
2022-08-12T01:34:59.619Z,957.3700
2022-08-12T01:35:10.692Z,957.3900
2022-08-12T01:35:21.903Z,957.3700
2022-08-12T01:35:32.981Z,957.3700
2022-08-12T01:35:44.071Z,957.3500
2022-08-12T01:36:08.355Z,957.3500
2022-08-12T01:36:18.012Z,957.3700
2022-08-12T01:36:29.089Z,957.3700
2022-08-12T01:36:40.150Z,957.3500
2022-08-12T01:36:51.355Z,957.3700
2022-08-12T01:37:02.404Z,957.3500
2022-08-12T01:37:13.477Z,957.3700
2022-08-12T01:37:24.533Z,957.4100
2022-08-12T01:37:35.858Z,957.4100
2022-08-12T01:37:46.933Z,957.3900
2022-08-12T01:37:58.010Z,957.4100
2022-08-12T01:38:09.088Z,957.3900
2022-08-12T01:38:20.153Z,957.4100
2022-08-12T01:38:37.113Z,957.4300
2022-08-12T01:38:48.202Z,957.4100
2022-08-12T01:38:59.273Z,957.4300
2022-08-12T01:39:10.392Z,957.4300
2022-08-12T01:39:21.472Z,957.4500
2022-08-12T01:39:32.578Z,957.4300
2022-08-12T01:40:32.029Z,957.4100
2022-08-12T01:40:33.193Z,957.4300
2022-08-12T01:40:35.324Z,957.4300
2022-08-12T01:40:38.154Z,957.4100
2022-08-12T01:40:50.475Z,957.4100
2022-08-12T01:41:01.633Z,957.4300
2022-08-12T01:41:12.736Z,957.4100
2022-08-12T01:41:23.897Z,957.4500
2022-08-12T01:41:34.958Z,957.4300
2022-08-12T01:41:51.500Z,957.4100
2022-08-12T01:42:02.958Z,957.4100
2022-08-12T01:42:13.999Z,957.4100
2022-08-12T01:42:25.050Z,957.4300
2022-08-12T01:42:36.159Z,957.4300
2022-08-12T01:42:47.242Z,957.4300
2022-08-12T01:42:58.317Z,957.4300
2022-08-12T01:43:09.381Z,957.4500
2022-08-12T01:43:20.456Z,957.4500
2022-08-12T01:43:31.530Z,957.4300
2022-08-12T01:43:42.592Z,957.4500
2022-08-12T01:43:53.679Z,957.4500
2022-08-12T01:44:04.746Z,957.4300
2022-08-12T01:44:15.946Z,957.4300
2022-08-12T01:44:31.782Z,957.4500
2022-08-12T01:44:42.859Z,957.4500
2022-08-12T01:44:53.926Z,957.4500
2022-08-12T01:45:04.994Z,957.4300
2022-08-12T01:45:16.069Z,957.4300
2022-08-12T01:45:27.126Z,957.4500
2022-08-12T01:45:43.345Z,957.4300
2022-08-12T01:45:57.635Z,957.4100
2022-08-12T01:46:08.802Z,957.4300
2022-08-12T01:46:19.863Z,957.4100
2022-08-12T01:46:30.931Z,957.4100
2022-08-12T01:46:41.998Z,957.4100
2022-08-12T01:46:53.046Z,957.4100
2022-08-12T01:47:04.105Z,957.3900
2022-08-12T01:47:15.176Z,957.3900
2022-08-12T01:47:26.256Z,957.3900
2022-08-12T01:47:37.293Z,957.3900
2022-08-12T01:47:48.368Z,957.3700
2022-08-12T01:47:59.428Z,957.3900
2022-08-12T01:48:10.501Z,957.3900
2022-08-12T01:48:21.566Z,957.3900
2022-08-12T01:48:32.636Z,957.3900
2022-08-12T01:48:43.706Z,957.3700
2022-08-12T01:48:54.771Z,957.3700
2022-08-12T01:49:05.836Z,957.3700
2022-08-12T01:49:16.918Z,957.3700
2022-08-12T01:49:33.890Z,957.3700
2022-08-12T01:49:44.966Z,957.3500
2022-08-12T01:49:56.036Z,957.3700
2022-08-12T01:50:07.195Z,957.3500
2022-08-12T01:50:18.288Z,957.3500
2022-08-12T01:50:29.337Z,957.3500
2022-08-12T01:50:43.204Z,957.3700
2022-08-12T01:50:54.609Z,957.3700
2022-08-12T01:51:11.613Z,957.3500
2022-08-12T01:52:15.045Z,957.3700
2022-08-12T01:52:21.381Z,957.3500
2022-08-12T01:52:21.656Z,957.3500
2022-08-12T01:52:22.309Z,957.3500
2022-08-12T01:52:33.718Z,957.3500
2022-08-12T01:52:44.794Z,957.3300
2022-08-12T01:52:55.884Z,957.3300
2022-08-12T01:53:06.957Z,957.3500
2022-08-12T01:53:18.024Z,957.3500
2022-08-12T01:53:29.114Z,957.3500
2022-08-12T01:53:50.320Z,957.3100
2022-08-12T01:54:03.040Z,957.3500
2022-08-12T01:54:14.131Z,957.3300
2022-08-12T01:54:25.491Z,957.3500
2022-08-12T01:54:36.545Z,957.3300
2022-08-12T01:54:47.606Z,957.3300
2022-08-12T01:54:58.669Z,957.3500
2022-08-12T01:55:09.749Z,957.3500
2022-08-12T01:55:20.807Z,957.3300
2022-08-12T01:55:31.867Z,957.3300
2022-08-12T01:55:42.936Z,957.3100
2022-08-12T01:55:53.984Z,957.3100
2022-08-12T01:56:05.054Z,957.3100
2022-08-12T01:56:16.168Z,957.3300
2022-08-12T01:56:27.376Z,957.3300
2022-08-12T01:56:38.432Z,957.3100
2022-08-12T01:56:49.496Z,957.3100
2022-08-12T01:57:00.580Z,957.3100
2022-08-12T01:57:11.655Z,957.3100
2022-08-12T01:57:57.681Z,957.2900
2022-08-12T01:57:57.741Z,957.2900
2022-08-12T01:57:59.617Z,957.2900
2022-08-12T01:58:11.517Z,957.2900
2022-08-12T01:58:22.563Z,957.2900
2022-08-12T01:58:33.630Z,957.2900
2022-08-12T01:58:44.686Z,957.2900
2022-08-12T01:58:55.766Z,957.3100
2022-08-12T01:59:06.846Z,957.2900
2022-08-12T01:59:23.826Z,957.3100
2022-08-12T01:59:34.902Z,957.3100
2022-08-12T01:59:45.965Z,957.2900
2022-08-12T01:59:57.046Z,957.2900
2022-08-12T02:00:08.108Z,957.3100
2022-08-12T02:00:19.184Z,957.2900
2022-08-12T02:00:36.017Z,957.3100
2022-08-12T02:00:55.495Z,957.3100
2022-08-12T02:01:04.262Z,957.3100
2022-08-12T02:01:15.422Z,957.2900
2022-08-12T02:01:26.518Z,957.3100
2022-08-12T02:01:37.704Z,957.3100
2022-08-12T02:01:48.916Z,957.3100
2022-08-12T02:01:59.973Z,957.3100
2022-08-12T02:02:11.049Z,957.3100
2022-08-12T02:02:22.123Z,957.3100
2022-08-12T02:02:33.201Z,957.3100
2022-08-12T02:02:44.249Z,957.3100
2022-08-12T02:02:55.313Z,957.3300
2022-08-12T02:03:06.389Z,957.3300
2022-08-12T02:03:17.442Z,957.3300
2022-08-12T02:03:28.486Z,957.3100
2022-08-12T02:03:39.564Z,957.3100
2022-08-12T02:03:50.632Z,957.3100
2022-08-12T02:04:01.692Z,957.3100
2022-08-12T02:04:12.762Z,957.3100
2022-08-12T02:04:23.826Z,957.2900
2022-08-12T02:04:34.909Z,957.2900
2022-08-12T02:04:45.984Z,957.3100
2022-08-12T02:04:57.051Z,957.3100
2022-08-12T02:05:08.125Z,957.2900
2022-08-12T02:05:19.336Z,957.2900
2022-08-12T02:05:30.414Z,957.2900
2022-08-12T02:05:44.267Z,957.3100
2022-08-12T02:05:55.313Z,957.3100
2022-08-12T02:06:06.385Z,957.3100
2022-08-12T02:06:17.431Z,957.3100
2022-08-12T02:06:28.532Z,957.2900
2022-08-12T02:06:39.577Z,957.2900
2022-08-12T02:06:50.855Z,957.2900
2022-08-12T02:07:01.947Z,957.2900
2022-08-12T02:07:13.001Z,957.2900
2022-08-12T02:07:24.065Z,957.2900
2022-08-12T02:07:35.143Z,957.3100
2022-08-12T02:07:46.228Z,957.3100
2022-08-12T02:07:57.285Z,957.2900
2022-08-12T02:08:08.362Z,957.2900
2022-08-12T02:08:19.435Z,957.2900
2022-08-12T02:08:30.482Z,957.2900
2022-08-12T02:08:41.543Z,957.2900
2022-08-12T02:08:52.738Z,957.2900
2022-08-12T02:09:03.794Z,957.2900
2022-08-12T02:09:14.863Z,957.2900
2022-08-12T02:09:26.088Z,957.2900
2022-08-12T02:09:37.176Z,957.2700
2022-08-12T02:09:48.228Z,957.2700
2022-08-12T02:09:59.296Z,957.3100
2022-08-12T02:10:10.335Z,957.3100
2022-08-12T02:10:49.365Z,957.3100
2022-08-12T02:10:50.693Z,957.3100
2022-08-12T02:11:01.222Z,957.3100
2022-08-12T02:11:12.303Z,957.3100
2022-08-12T02:11:23.361Z,957.2900
2022-08-12T02:11:34.473Z,957.3100
2022-08-12T02:11:45.551Z,957.3100
2022-08-12T02:11:56.757Z,957.3100
2022-08-12T02:12:09.935Z,957.3100
2022-08-12T02:12:24.730Z,957.3100
2022-08-12T02:12:38.034Z,957.3100
2022-08-12T02:12:49.082Z,957.3100
2022-08-12T02:13:00.444Z,957.3100
2022-08-12T02:13:11.510Z,957.2900
2022-08-12T02:13:43.662Z,957.2900
2022-08-12T02:13:48.543Z,957.3100
2022-08-12T02:13:56.527Z,957.3100
2022-08-12T02:14:07.588Z,957.2900
2022-08-12T02:14:18.670Z,957.2900
2022-08-12T02:14:29.867Z,957.2900
2022-08-12T02:14:40.934Z,957.2900
2022-08-12T02:14:52.007Z,957.2700
2022-08-12T02:15:03.049Z,957.2900
2022-08-12T02:15:14.117Z,957.2700
2022-08-12T02:15:25.170Z,957.2900
2022-08-12T02:15:36.247Z,957.2900
2022-08-12T02:15:47.320Z,957.2900
2022-08-12T02:15:58.408Z,957.2700
2022-08-12T02:16:09.499Z,957.2700
2022-08-12T02:16:20.569Z,957.2700
2022-08-12T02:16:31.907Z,957.2900
2022-08-12T02:16:42.996Z,957.2900
2022-08-12T02:16:54.048Z,957.2900
2022-08-12T02:17:05.109Z,957.2900
2022-08-12T02:17:16.175Z,957.2900
2022-08-12T02:17:54.582Z,957.2700
2022-08-12T02:17:55.580Z,957.2900
2022-08-12T02:18:01.156Z,957.3100
2022-08-12T02:18:12.231Z,957.3100